Time;durP1;ratioP1;P1;durP2;ratioP2;P2;SDS_P1;SDS_P2;PMS_P1;PMS_P2;Temp;Humidity;BMP_temperature;BMP_pressure;BME280_temperature;BME280_humidity;BME280_pressure;Samples;Min_cycle;Max_cycle;Signal;HPM_P1;HPM_P2
2022/11/04 00:01:46;;;;;;;1999.90;999.90;;;14.40;99.90;;;;;;4998403;28;20022;-80
2022/11/04 00:04:14;;;;;;;1999.90;999.90;;;14.40;99.90;;;;;;5019882;28;20018;-80
2022/11/04 00:06:40;;;;;;;1999.90;999.90;;;14.40;99.90;;;;;;4994183;28;20432;-80
2022/11/04 00:09:08;;;;;;;1999.90;999.90;;;14.30;99.90;;;;;;5016609;28;20440;-80
2022/11/04 00:14:19;;;;;;;1999.90;999.90;;;14.20;99.90;;;;;;5022668;28;20037;-80
2022/11/04 00:28:41;;;;;;;1999.90;999.90;;;14.30;99.90;;;;;;5016179;28;20523;-80
2022/11/04 00:30:26;;;;;;;1999.90;999.90;;;14.40;99.90;;;;;;5014267;28;20417;-80
2022/11/04 00:35:36;;;;;;;1999.90;999.90;;;14.50;99.90;;;;;;5012576;28;20045;-80
2022/11/04 00:38:01;;;;;;;1999.90;999.90;;;14.60;99.90;;;;;;5024342;28;20037;-80
2022/11/04 00:40:27;;;;;;;1999.90;999.90;;;14.70;99.90;;;;;;4994746;28;20056;-79
2022/11/04 00:42:53;;;;;;;1999.90;999.90;;;14.70;99.90;;;;;;5020670;28;20025;-79
2022/11/04 00:45:18;;;;;;;1999.90;999.90;;;14.70;99.90;;;;;;5017647;28;20040;-79
2022/11/04 00:47:44;;;;;;;1999.90;999.90;;;14.10;99.90;;;;;;5007666;28;20025;-79
2022/11/04 00:50:09;;;;;;;1999.90;999.90;;;13.20;99.90;;;;;;5016415;28;20022;-79
2022/11/04 00:52:35;;;;;;;1999.90;999.90;;;12.50;99.90;;;;;;5016875;28;20049;-78
2022/11/04 00:55:01;;;;;;;1999.90;999.90;;;12.10;99.90;;;;;;5022461;28;20049;-78
2022/11/04 00:57:26;;;;;;;1999.90;999.90;;;11.90;99.90;;;;;;5017822;28;20018;-78
2022/11/04 00:59:52;;;;;;;1999.90;999.90;;;11.90;99.90;;;;;;5015091;28;20581;-78
2022/11/04 01:02:18;;;;;;;1999.90;999.90;;;11.90;99.90;;;;;;5013095;28;20057;-79
2022/11/04 01:04:45;;;;;;;1999.90;999.90;;;11.80;99.90;;;;;;5012365;28;20025;-78
2022/11/04 01:07:10;;;;;;;1999.90;999.90;;;11.60;99.90;;;;;;4994591;28;20079;-78
2022/11/04 01:09:36;;;;;;;1999.90;999.90;;;11.60;99.90;;;;;;5015292;28;20033;-79
2022/11/04 01:12:02;;;;;;;1999.90;999.90;;;11.60;99.90;;;;;;5013562;28;20132;-79
2022/11/04 01:14:27;;;;;;;1999.90;999.90;;;11.60;99.90;;;;;;5008979;28;20057;-79
2022/11/04 01:16:53;;;;;;;1999.90;999.90;;;11.50;99.90;;;;;;5007217;28;20061;-79
2022/11/04 01:19:19;;;;;;;1999.90;999.90;;;11.50;99.90;;;;;;5017265;28;20033;-80
2022/11/04 01:21:44;;;;;;;1999.90;999.90;;;11.60;99.90;;;;;;5020533;28;20017;-79
2022/11/04 01:24:10;;;;;;;1999.90;999.90;;;11.50;99.90;;;;;;5017013;28;20029;-79
2022/11/04 01:26:35;;;;;;;1999.90;999.90;;;11.60;99.90;;;;;;5019857;28;20025;-79
2022/11/04 01:29:01;;;;;;;1999.90;999.90;;;11.60;99.90;;;;;;5010601;28;20025;-79
2022/11/04 01:31:29;;;;;;;1999.90;999.90;;;11.60;99.90;;;;;;5013948;28;20508;-79
2022/11/04 01:33:56;;;;;;;1999.90;999.90;;;11.60;99.90;;;;;;5022399;28;20014;-79
2022/11/04 01:36:23;;;;;;;1999.90;999.90;;;11.60;99.90;;;;;;4990654;28;20014;-79
2022/11/04 01:38:48;;;;;;;1999.90;999.90;;;11.60;99.90;;;;;;5011753;28;20037;-79
2022/11/04 01:41:26;;;;;;;1999.90;999.90;;;11.50;99.90;;;;;;5013319;28;20014;-80
2022/11/04 01:43:53;;;;;;;1999.90;999.90;;;11.60;99.90;;;;;;5017578;28;20021;-79
2022/11/04 01:46:32;;;;;;;1999.90;999.90;;;11.60;99.90;;;;;;4989781;28;20397;-80
2022/11/04 01:49:22;;;;;;;1999.90;999.90;;;11.70;99.90;;;;;;5015083;28;20563;-80
2022/11/04 01:51:50;;;;;;;1999.90;999.90;;;11.70;99.90;;;;;;5001836;28;20014;-80
2022/11/04 01:54:17;;;;;;;1999.90;999.90;;;11.70;99.90;;;;;;5014172;28;20077;-80
2022/11/04 01:56:45;;;;;;;1999.90;999.90;;;11.70;99.90;;;;;;5013480;28;20072;-80
2022/11/04 01:59:21;;;;;;;1999.90;999.90;;;11.80;99.90;;;;;;4996829;28;20088;-80
2022/11/04 02:01:47;;;;;;;1999.90;999.90;;;11.90;99.90;;;;;;4989201;28;20335;-80
2022/11/04 02:04:26;;;;;;;1999.90;999.90;;;11.80;99.90;;;;;;5012239;28;20021;-79
2022/11/04 02:06:57;;;;;;;1999.90;999.90;;;11.60;99.90;;;;;;5021148;28;20049;-79
2022/11/04 02:09:25;;;;;;;1999.90;999.90;;;11.50;99.90;;;;;;5013091;28;20036;-79
2022/11/04 02:14:35;;;;;;;1999.90;999.90;;;11.40;99.90;;;;;;5020040;28;20551;-78
2022/11/04 02:17:28;;;;;;;1999.90;999.90;;;11.20;99.90;;;;;;5018151;28;20068;-79
2022/11/04 02:20:14;;;;;;;1999.90;999.90;;;11.20;99.90;;;;;;5014937;28;20032;-79
2022/11/04 02:22:55;;;;;;;1999.90;999.90;;;11.20;99.90;;;;;;4991800;28;20025;-79
2022/11/04 02:25:39;;;;;;;1999.90;999.90;;;10.70;99.90;;;;;;4991945;28;20113;-79
2022/11/04 02:28:43;;;;;;;1999.90;999.90;;;10.40;99.90;;;;;;5009328;28;20120;-79
2022/11/04 02:31:29;;;;;;;1999.90;999.90;;;10.10;99.90;;;;;;4990675;28;20037;-79
2022/11/04 02:34:02;;;;;;;1999.90;999.90;;;10.00;99.90;;;;;;5010983;28;20026;-79
2022/11/04 02:36:43;;;;;;;1999.90;999.90;;;9.90;99.90;;;;;;4992272;28;20429;-79
2022/11/04 02:39:39;;;;;;;1999.90;999.90;;;9.90;99.90;;;;;;5020474;28;20026;-79
2022/11/04 02:42:13;;;;;;;1999.90;999.90;;;10.00;99.90;;;;;;4991539;28;20489;-79
2022/11/04 02:44:58;;;;;;;1999.90;999.90;;;10.00;99.90;;;;;;4996915;28;20025;-79
2022/11/04 02:47:28;;;;;;;1999.90;999.90;;;9.90;99.90;;;;;;5015927;28;20062;-79
2022/11/04 02:49:59;;;;;;;1999.90;999.90;;;9.80;99.90;;;;;;4996616;28;20437;-78
2022/11/04 02:52:39;;;;;;;1999.90;999.90;;;9.80;99.90;;;;;;5020944;28;20029;-79
2022/11/04 02:55:08;;;;;;;1999.90;999.90;;;9.70;99.90;;;;;;5021514;28;20042;-78
2022/11/04 02:57:37;;;;;;;1999.90;999.90;;;9.70;99.90;;;;;;5009594;28;20413;-78
2022/11/04 03:00:14;;;;;;;1999.90;999.90;;;9.80;99.90;;;;;;5012611;28;20475;-79
2022/11/04 03:02:53;;;;;;;1999.90;999.90;;;9.80;99.90;;;;;;5025316;28;20080;-80
2022/11/04 03:05:24;;;;;;;1999.90;999.90;;;9.70;99.90;;;;;;4991859;28;20408;-78
2022/11/04 03:07:52;;;;;;;1999.90;999.90;;;9.70;99.90;;;;;;5006407;28;20447;-79
2022/11/04 03:10:26;;;;;;;1999.90;999.90;;;9.70;99.90;;;;;;5018950;28;20562;-78
2022/11/04 03:13:02;;;;;;;1999.90;999.90;;;9.80;99.90;;;;;;5014267;28;20097;-78
2022/11/04 03:15:32;;;;;;;1999.90;999.90;;;9.80;99.90;;;;;;5022108;28;20048;-79
2022/11/04 03:18:23;;;;;;;1999.90;999.90;;;9.90;99.90;;;;;;4993049;28;20030;-79
2022/11/04 03:20:51;;;;;;;1999.90;999.90;;;10.00;99.90;;;;;;5018031;28;20578;-81
2022/11/04 03:23:18;;;;;;;1999.90;999.90;;;10.00;99.90;;;;;;5011554;28;20029;-80
2022/11/04 03:25:45;;;;;;;1999.90;999.90;;;10.10;99.90;;;;;;5011018;28;20485;-79
2022/11/04 03:28:29;;;;;;;1999.90;999.90;;;10.10;99.90;;;;;;5018129;28;20022;-79
2022/11/04 03:31:02;;;;;;;1999.90;999.90;;;10.20;99.90;;;;;;5009626;28;20384;-79
2022/11/04 03:33:42;;;;;;;1999.90;999.90;;;10.20;99.90;;;;;;5018232;28;20091;-79
2022/11/04 03:36:08;;;;;;;1999.90;999.90;;;10.20;99.90;;;;;;5013943;28;20116;-79
2022/11/04 03:38:35;;;;;;;1999.90;999.90;;;10.20;99.90;;;;;;5016968;28;20095;-78
2022/11/04 03:41:06;;;;;;;1999.90;999.90;;;9.90;99.90;;;;;;5024032;28;20028;-79
2022/11/04 03:43:33;;;;;;;1999.90;999.90;;;9.60;99.90;;;;;;5015138;28;20022;-79
2022/11/04 03:45:59;;;;;;;1999.90;999.90;;;9.40;99.90;;;;;;5016331;28;20347;-78
2022/11/04 03:48:24;;;;;;;1999.90;999.90;;;9.40;99.90;;;;;;4990541;28;20054;-78
2022/11/04 03:50:50;;;;;;;1999.90;999.90;;;9.40;99.90;;;;;;5015415;28;20288;-78
2022/11/04 03:53:20;;;;;;;1999.90;999.90;;;9.40;99.90;;;;;;5013152;28;20042;-78
2022/11/04 03:55:58;;;;;;;1999.90;999.90;;;9.40;99.90;;;;;;5015523;28;20032;-78
2022/11/04 03:58:57;;;;;;;1999.90;999.90;;;9.50;99.90;;;;;;5015420;28;20083;-78
2022/11/04 04:01:29;;;;;;;1999.90;999.90;;;9.50;99.90;;;;;;5012116;28;20117;-78
2022/11/04 04:04:19;;;;;;;1999.90;999.90;;;9.50;99.90;;;;;;5018351;28;20472;-78
2022/11/04 04:06:46;;;;;;;1999.90;999.90;;;9.50;99.90;;;;;;5010419;28;20037;-78
2022/11/04 04:09:20;;;;;;;1999.90;999.90;;;9.60;99.90;;;;;;5028211;28;20013;-79
2022/11/04 04:11:55;;;;;;;1999.90;999.90;;;9.60;99.90;;;;;;5012476;28;20053;-78
2022/11/04 04:14:40;;;;;;;1999.90;999.90;;;9.70;99.90;;;;;;5025131;28;20067;-78
2022/11/04 04:17:19;;;;;;;1999.90;999.90;;;10.00;99.90;;;;;;5014063;28;20052;-78
2022/11/04 04:19:53;;;;;;;1999.90;999.90;;;10.20;99.90;;;;;;5013732;28;20507;-78
2022/11/04 04:22:29;;;;;;;1999.90;999.90;;;10.30;99.90;;;;;;4989733;28;20036;-79
2022/11/04 04:27:44;;;;;;;1999.90;999.90;;;10.80;99.90;;;;;;5012759;28;20413;-78
2022/11/04 04:30:12;;;;;;;1999.90;999.90;;;10.80;99.90;;;;;;5016713;28;20538;-78
2022/11/04 04:32:43;;;;;;;1999.90;999.90;;;10.90;99.90;;;;;;4992247;28;20029;-78
2022/11/04 04:44:58;;;;;;;1999.90;999.90;;;11.00;99.90;;;;;;5018274;28;20112;-79
2022/11/04 04:46:22;;;;;;;1999.90;999.90;;;11.50;99.90;;;;;;5010703;28;20032;-80
2022/11/04 04:48:48;;;;;;;1999.90;999.90;;;11.60;99.90;;;;;;5011738;28;20528;-80
2022/11/04 04:51:14;;;;;;;1999.90;999.90;;;11.60;99.90;;;;;;4994855;28;20080;-80
2022/11/04 04:53:40;;;;;;;1999.90;999.90;;;11.80;99.90;;;;;;5016485;28;20049;-80
2022/11/04 04:56:05;;;;;;;1999.90;999.90;;;11.90;99.90;;;;;;5010311;28;20036;-80
2022/11/04 04:58:31;;;;;;;1999.90;999.90;;;11.30;99.90;;;;;;5009801;28;20028;-80
2022/11/04 05:00:57;;;;;;;1999.90;999.90;;;10.80;99.90;;;;;;5012760;28;20064;-80
2022/11/04 05:03:23;;;;;;;1999.90;999.90;;;10.50;99.90;;;;;;5017920;28;20472;-80
2022/11/04 05:05:49;;;;;;;1999.90;999.90;;;10.40;99.90;;;;;;5009338;28;20072;-80
2022/11/04 05:08:14;;;;;;;1999.90;999.90;;;10.30;99.90;;;;;;4991580;28;20444;-80
2022/11/04 05:10:40;;;;;;;1999.90;999.90;;;10.30;99.90;;;;;;5011922;28;20105;-80
2022/11/04 05:15:50;;;;;;;1999.90;999.90;;;10.30;99.90;;;;;;5011042;28;20077;-80
2022/11/04 05:18:16;;;;;;;1999.90;999.90;;;10.30;99.90;;;;;;5010501;28;20030;-80
2022/11/04 05:20:41;;;;;;;1999.90;999.90;;;10.30;99.90;;;;;;5019479;28;20054;-80
2022/11/04 05:23:10;;;;;;;1999.90;999.90;;;10.30;99.90;;;;;;5017097;28;20048;-80
2022/11/04 05:25:40;;;;;;;1999.90;999.90;;;10.30;99.90;;;;;;5014153;28;20370;-80
2022/11/04 05:28:06;;;;;;;1999.90;999.90;;;10.30;99.90;;;;;;5013057;28;20520;-80
2022/11/04 05:30:32;;;;;;;1999.90;999.90;;;10.20;99.90;;;;;;5015600;28;20048;-80
2022/11/04 05:32:57;;;;;;;1999.90;999.90;;;10.20;99.90;;;;;;5014461;28;20480;-80
2022/11/04 05:35:23;;;;;;;1999.90;999.90;;;10.30;99.90;;;;;;5012410;28;20026;-80
2022/11/04 05:37:49;;;;;;;1999.90;999.90;;;10.30;99.90;;;;;;5015808;28;20040;-80
2022/11/04 05:40:15;;;;;;;1999.90;999.90;;;10.40;99.90;;;;;;5015872;28;20029;-80
2022/11/04 05:42:40;;;;;;;1999.90;999.90;;;10.50;99.90;;;;;;5021541;28;20057;-80
2022/11/04 05:45:06;;;;;;;1999.90;999.90;;;10.60;99.90;;;;;;5016185;28;20101;-80
2022/11/04 05:47:32;;;;;;;1999.90;999.90;;;10.70;99.90;;;;;;4996076;28;20025;-80
2022/11/04 05:49:58;;;;;;;1999.90;999.90;;;10.80;99.90;;;;;;5019534;28;20083;-80
2022/11/04 05:52:23;;;;;;;1999.90;999.90;;;10.80;99.90;;;;;;5018239;28;20021;-80
2022/11/04 05:54:49;;;;;;;1999.90;999.90;;;11.00;99.90;;;;;;4993346;28;20076;-80
2022/11/04 05:57:14;;;;;;;1999.90;999.90;;;11.20;99.90;;;;;;5013375;28;20044;-80
2022/11/04 05:59:40;;;;;;;1999.90;999.90;;;11.20;99.90;;;;;;5017189;28;20022;-80
2022/11/04 06:02:06;;;;;;;1999.90;999.90;;;11.20;99.90;;;;;;5014536;28;20014;-80
2022/11/04 06:04:32;;;;;;;1999.90;999.90;;;11.20;99.90;;;;;;5019972;28;20018;-80
2022/11/04 06:06:58;;;;;;;1999.90;999.90;;;11.10;99.90;;;;;;5013021;28;20782;-80
2022/11/04 06:09:37;;;;;;;1999.90;999.90;;;11.10;99.90;;;;;;5015422;28;20029;-80
2022/11/04 06:12:05;;;;;;;1999.90;999.90;;;11.10;99.90;;;;;;5017452;28;20056;-80
2022/11/04 06:14:30;;;;;;;1999.90;999.90;;;11.20;99.90;;;;;;5010128;28;20057;-81
2022/11/04 06:16:56;;;;;;;1999.90;999.90;;;11.20;99.90;;;;;;5013163;28;20077;-80
2022/11/04 06:19:21;;;;;;;1999.90;999.90;;;11.30;99.90;;;;;;4989480;28;20014;-80
2022/11/04 06:21:47;;;;;;;1999.90;999.90;;;11.40;99.90;;;;;;5019796;28;20393;-81
2022/11/04 06:24:13;;;;;;;1999.90;999.90;;;11.40;99.90;;;;;;5015093;28;20029;-80
2022/11/04 06:26:38;;;;;;;1999.90;999.90;;;11.60;99.90;;;;;;5013432;28;20036;-80
2022/11/04 06:29:04;;;;;;;1999.90;999.90;;;11.80;99.90;;;;;;4989900;28;20026;-80
2022/11/04 06:31:29;;;;;;;1999.90;999.90;;;11.90;99.90;;;;;;5015407;28;20456;-80
2022/11/04 06:33:55;;;;;;;1999.90;999.90;;;11.90;99.90;;;;;;5018806;28;20040;-80
2022/11/04 06:36:21;;;;;;;1999.90;999.90;;;11.90;99.90;;;;;;5019516;28;20030;-80
2022/11/04 06:38:46;;;;;;;1999.90;999.90;;;11.90;99.90;;;;;;5014985;28;20033;-80
2022/11/04 06:41:15;;;;;;;1999.90;999.90;;;11.90;99.90;;;;;;4990050;28;20033;-80
2022/11/04 06:43:41;;;;;;;1999.90;999.90;;;12.00;99.90;;;;;;5010659;28;20404;-80
2022/11/04 06:46:28;;;;;;;1999.90;999.90;;;12.00;99.90;;;;;;4990418;28;20036;-80
2022/11/04 06:48:55;;;;;;;1999.90;999.90;;;12.00;99.90;;;;;;4991908;28;20053;-80
2022/11/04 06:51:21;;;;;;;1999.90;999.90;;;12.00;99.90;;;;;;5017285;28;20021;-81
2022/11/04 06:53:47;;;;;;;1999.90;999.90;;;12.00;99.90;;;;;;5014070;28;20049;-81
2022/11/04 06:56:13;;;;;;;1999.90;999.90;;;12.20;99.90;;;;;;5013607;28;20081;-80
2022/11/04 06:58:38;;;;;;;1999.90;999.90;;;12.40;99.90;;;;;;4987181;28;20041;-81
2022/11/04 07:01:04;;;;;;;1999.90;999.90;;;12.50;99.90;;;;;;4996367;28;20053;-80
2022/11/04 07:03:30;;;;;;;1999.90;999.90;;;12.50;99.90;;;;;;5013222;28;20113;-80
2022/11/04 07:05:55;;;;;;;1999.90;999.90;;;12.40;99.90;;;;;;5011317;28;20029;-80
2022/11/04 07:08:21;;;;;;;1999.90;999.90;;;12.10;99.90;;;;;;5020154;28;20034;-81
2022/11/04 07:10:47;;;;;;;1999.90;999.90;;;12.00;99.90;;;;;;5023924;28;20042;-80
2022/11/04 07:13:12;;;;;;;1999.90;999.90;;;12.00;99.90;;;;;;5013132;28;20033;-80
2022/11/04 07:15:39;;;;;;;1999.90;999.90;;;12.10;99.90;;;;;;5011036;28;20045;-81
2022/11/04 07:18:05;;;;;;;1999.90;999.90;;;12.20;99.90;;;;;;5015173;28;20068;-81
2022/11/04 07:20:32;;;;;;;1999.90;999.90;;;12.20;99.90;;;;;;4996001;28;20434;-81
2022/11/04 07:22:58;;;;;;;1999.90;999.90;;;12.30;99.90;;;;;;5016023;28;20022;-80
2022/11/04 07:25:24;;;;;;;1999.90;999.90;;;12.20;99.90;;;;;;5013121;28;20034;-81
2022/11/04 07:27:49;;;;;;;1999.90;999.90;;;12.20;99.90;;;;;;5013690;28;20108;-81
2022/11/04 07:30:15;;;;;;;1999.90;999.90;;;12.20;99.90;;;;;;5018223;28;20414;-81
2022/11/04 07:32:41;;;;;;;1999.90;999.90;;;12.20;99.90;;;;;;5018060;28;20109;-81
2022/11/04 07:35:07;;;;;;;1999.90;999.90;;;12.20;99.90;;;;;;5012960;28;20108;-81
2022/11/04 07:37:33;;;;;;;1999.90;999.90;;;12.20;99.90;;;;;;4995331;28;20030;-81
2022/11/04 07:39:58;;;;;;;1999.90;999.90;;;12.20;99.90;;;;;;5013476;28;20095;-81
2022/11/04 07:42:24;;;;;;;1999.90;999.90;;;12.20;99.90;;;;;;5015321;28;20026;-82
2022/11/04 07:44:50;;;;;;;1999.90;999.90;;;12.20;99.90;;;;;;5003966;28;20025;-80
2022/11/04 07:47:15;;;;;;;1999.90;999.90;;;12.20;99.90;;;;;;5016668;28;20501;-81
2022/11/04 07:49:41;;;;;;;1999.90;999.90;;;12.20;99.90;;;;;;5017810;28;20061;-80
2022/11/04 07:52:06;;;;;;;1999.90;999.90;;;12.20;99.90;;;;;;5017756;28;20101;-80
2022/11/04 07:54:32;;;;;;;1999.90;999.90;;;12.30;99.90;;;;;;5000701;28;20534;-80
2022/11/04 07:56:58;;;;;;;1999.90;999.90;;;12.40;99.90;;;;;;5012726;28;20060;-80
2022/11/04 07:59:23;;;;;;;1999.90;999.90;;;12.50;99.90;;;;;;5020361;28;20393;-80
2022/11/04 08:01:49;;;;;;;1999.90;999.90;;;12.50;99.90;;;;;;5021310;28;20025;-80
2022/11/04 08:04:14;;;;;;;1999.90;999.90;;;12.60;99.90;;;;;;5011926;28;20037;-78
2022/11/04 08:06:40;;;;;;;1999.90;999.90;;;12.60;99.90;;;;;;5014589;28;20388;-82
2022/11/04 08:09:06;;;;;;;1999.90;999.90;;;12.60;99.90;;;;;;5020790;28;20033;-78
2022/11/04 08:11:31;;;;;;;1999.90;999.90;;;12.70;99.90;;;;;;5020446;28;20025;-79
2022/11/04 08:13:57;;;;;;;1999.90;999.90;;;12.70;99.90;;;;;;5015362;28;20105;-78
2022/11/04 08:16:24;;;;;;;1999.90;999.90;;;12.60;99.90;;;;;;5003968;28;20477;-78
2022/11/04 08:18:54;;;;;;;1999.90;999.90;;;12.60;99.90;;;;;;5007004;28;20107;-78
2022/11/04 08:21:20;;;;;;;1999.90;999.90;;;12.60;99.90;;;;;;5011279;28;20022;-79
2022/11/04 08:23:46;;;;;;;1999.90;999.90;;;12.60;99.90;;;;;;5019764;28;20040;-80
2022/11/04 08:26:16;;;;;;;1999.90;999.90;;;12.60;99.90;;;;;;5012489;28;20049;-81
2022/11/04 08:28:42;;;;;;;1999.90;999.90;;;12.60;99.90;;;;;;5016197;28;20030;-81
2022/11/04 08:31:16;;;;;;;1999.90;999.90;;;12.60;99.90;;;;;;5014740;28;20047;-82
2022/11/04 08:33:42;;;;;;;1999.90;999.90;;;12.60;99.90;;;;;;4999585;28;20048;-85
2022/11/04 08:36:14;;;;;;;1999.90;999.90;;;12.60;99.90;;;;;;5011983;28;20018;-80
2022/11/04 08:38:39;;;;;;;1999.90;999.90;;;12.70;99.90;;;;;;5012986;28;20030;-83
2022/11/04 08:41:07;;;;;;;1999.90;999.90;;;12.70;99.90;;;;;;5010801;28;20175;-84
2022/11/04 08:43:33;;;;;;;1999.90;999.90;;;12.70;99.90;;;;;;5009118;28;20091;-83
2022/11/04 08:46:00;;;;;;;1999.90;999.90;;;12.70;99.90;;;;;;5011563;28;20022;-84
2022/11/04 08:48:25;;;;;;;1999.90;999.90;;;12.70;99.90;;;;;;4997326;28;20041;-85
2022/11/04 08:50:54;;;;;;;1999.90;999.90;;;12.80;99.90;;;;;;4992648;28;20037;-84
2022/11/04 08:53:20;;;;;;;1999.90;999.90;;;12.80;99.90;;;;;;5011515;28;20075;-81
2022/11/04 08:55:46;;;;;;;1999.90;999.90;;;12.80;99.90;;;;;;5008618;28;20037;-82
2022/11/04 08:58:12;;;;;;;1999.90;999.90;;;12.80;99.90;;;;;;4993999;28;20104;-87
2022/11/04 09:00:38;;;;;;;1999.90;999.90;;;12.90;99.90;;;;;;5009951;28;20041;-85
2022/11/04 09:03:04;;;;;;;1999.90;999.90;;;12.90;99.90;;;;;;5007613;28;20019;-84
2022/11/04 09:05:29;;;;;;;1999.90;999.90;;;12.90;99.90;;;;;;5011242;28;20025;-83
2022/11/04 09:07:55;;;;;;;1999.90;999.90;;;13.00;99.90;;;;;;5011085;28;20117;-82
2022/11/04 09:10:21;;;;;;;1999.90;999.90;;;13.00;99.90;;;;;;5010865;28;20393;-84
2022/11/04 09:12:47;;;;;;;1999.90;999.90;;;13.00;99.90;;;;;;4993378;28;20038;-80
2022/11/04 09:15:13;;;;;;;1999.90;999.90;;;13.10;99.90;;;;;;5011050;28;20029;-82
2022/11/04 09:17:39;;;;;;;1999.90;999.90;;;13.10;99.90;;;;;;5010693;28;20053;-83
2022/11/04 09:20:05;;;;;;;1999.90;999.90;;;13.10;99.90;;;;;;5008988;28;20036;-83
2022/11/04 09:22:31;;;;;;;1999.90;999.90;;;13.20;99.90;;;;;;5017838;28;20075;-84
2022/11/04 09:24:57;;;;;;;1999.90;999.90;;;13.20;99.90;;;;;;5011015;28;20042;-82
2022/11/04 09:27:22;;;;;;;1999.90;999.90;;;13.20;99.90;;;;;;5008209;28;20022;-81
2022/11/04 09:29:48;;;;;;;1999.90;999.90;;;13.20;99.90;;;;;;5017705;28;20053;-82
2022/11/04 09:32:14;;;;;;;1999.90;999.90;;;13.20;99.90;;;;;;5007240;28;20036;-82
2022/11/04 09:34:40;;;;;;;1999.90;999.90;;;13.20;99.90;;;;;;5010436;28;20096;-83
2022/11/04 09:37:05;;;;;;;1999.90;999.90;;;13.30;99.90;;;;;;5009844;28;20033;-84
2022/11/04 09:39:31;;;;;;;1999.90;999.90;;;13.30;99.90;;;;;;4988650;28;20117;-82
2022/11/04 09:42:15;;;;;;;1999.90;999.90;;;13.30;99.90;;;;;;5010336;28;20033;-83
2022/11/04 09:44:44;;;;;;;1999.90;999.90;;;13.40;99.90;;;;;;4997089;28;20033;-80
2022/11/04 09:47:11;;;;;;;1999.90;999.90;;;13.50;99.90;;;;;;4991180;28;20140;-82
2022/11/04 09:49:41;;;;;;;1999.90;999.90;;;13.50;99.90;;;;;;5001358;28;20557;-82
2022/11/04 09:52:40;;;;;;;1999.90;999.90;;;13.70;99.90;;;;;;5008790;28;20017;-83
2022/11/04 09:55:12;;;;;;;1999.90;999.90;;;13.70;99.90;;;;;;4997237;28;20115;-80
2022/11/04 09:57:38;;;;;;;1999.90;999.90;;;13.80;99.90;;;;;;5013198;28;20497;-83
2022/11/04 10:00:05;;;;;;;1999.90;999.90;;;13.90;99.90;;;;;;5010203;28;20045;-82
2022/11/04 10:02:52;;;;;;;1999.90;999.90;;;13.80;99.90;;;;;;5001209;28;20026;-83
2022/11/04 10:05:36;;;;;;;1999.90;999.90;;;13.90;99.90;;;;;;5004972;28;20032;-84
2022/11/04 10:08:31;;;;;;;1999.90;999.90;;;13.80;99.90;;;;;;5002748;28;20033;-82
2022/11/04 10:11:21;;;;;;;1999.90;999.90;;;13.70;99.90;;;;;;4940020;28;20063;-82
2022/11/04 10:13:49;;;;;;;1999.90;999.90;;;13.90;99.90;;;;;;5017034;28;20030;-83
2022/11/04 10:16:41;;;;;;;1999.90;999.90;;;13.90;99.90;;;;;;5013480;28;20034;-82
2022/11/04 10:19:09;;;;;;;1999.90;999.90;;;13.80;99.90;;;;;;4980083;28;20088;-84
2022/11/04 10:21:41;;;;;;;1999.90;999.90;;;13.80;99.90;;;;;;5009427;28;20030;-80
2022/11/04 10:24:23;;;;;;;1999.90;999.90;;;13.90;99.90;;;;;;4992469;28;20440;-82
2022/11/04 10:27:16;;;;;;;1999.90;999.90;;;14.00;99.90;;;;;;5008771;28;20105;-78
2022/11/04 10:29:51;;;;;;;1999.90;999.90;;;14.30;99.90;;;;;;5008030;28;20066;-81
2022/11/04 10:32:44;;;;;;;1999.90;999.90;;;14.40;99.90;;;;;;5013749;28;20041;-82
2022/11/04 10:35:33;;;;;;;1999.90;999.90;;;14.50;99.90;;;;;;5015271;28;20042;-83
2022/11/04 10:38:32;;;;;;;1999.90;999.90;;;14.50;99.90;;;;;;5016388;28;20053;-81
2022/11/04 10:40:58;;;;;;;1999.90;999.90;;;14.30;99.90;;;;;;5006862;28;20485;-82
2022/11/04 10:43:33;;;;;;;1999.90;999.90;;;14.20;99.90;;;;;;5013412;28;20075;-83
2022/11/04 10:46:19;;;;;;;1999.90;999.90;;;14.10;99.90;;;;;;5006608;28;20030;-84
2022/11/04 10:48:52;;;;;;;1999.90;999.90;;;14.20;99.90;;;;;;5013421;28;20478;-84
2022/11/04 10:51:22;;;;;;;1999.90;999.90;;;14.10;99.90;;;;;;5010687;28;20109;-83
2022/11/04 10:53:57;;;;;;;1999.90;999.90;;;14.20;99.90;;;;;;5013656;28;20483;-83
2022/11/04 10:56:35;;;;;;;1999.90;999.90;;;14.30;99.90;;;;;;5012508;28;20116;-83
2022/11/04 10:59:27;;;;;;;1999.90;999.90;;;14.40;99.90;;;;;;5012881;28;20096;-85
2022/11/04 11:01:55;;;;;;;1999.90;999.90;;;14.40;99.90;;;;;;5017903;28;20040;-83
2022/11/04 11:04:27;;;;;;;1999.90;999.90;;;14.60;99.90;;;;;;5017137;28;20025;-82
2022/11/04 11:06:54;;;;;;;1999.90;999.90;;;14.60;99.90;;;;;;5018148;28;20013;-82
2022/11/04 11:09:28;;;;;;;1999.90;999.90;;;14.70;99.90;;;;;;5021094;28;20037;-83
2022/11/04 11:12:17;;;;;;;1999.90;999.90;;;14.70;99.90;;;;;;5014617;28;20026;-82
2022/11/04 11:14:43;;;;;;;1999.90;999.90;;;14.60;99.90;;;;;;5013124;28;20092;-83
2022/11/04 11:17:15;;;;;;;1999.90;999.90;;;14.50;99.90;;;;;;5014933;28;20038;-83
2022/11/04 11:20:06;;;;;;;1999.90;999.90;;;14.50;99.90;;;;;;5016508;28;20027;-83
2022/11/04 11:23:00;;;;;;;1999.90;999.90;;;14.50;99.90;;;;;;5016094;28;20023;-82
2022/11/04 11:25:43;;;;;;;1999.90;999.90;;;14.70;99.90;;;;;;4996138;28;20046;-83
2022/11/04 11:28:19;;;;;;;1999.90;999.90;;;14.80;99.90;;;;;;4993913;28;20030;-82
2022/11/04 11:30:45;;;;;;;1999.90;999.90;;;14.80;99.90;;;;;;4994118;28;20096;-83
2022/11/04 11:33:35;;;;;;;1999.90;999.90;;;14.80;99.90;;;;;;5013126;28;20133;-83
2022/11/04 11:36:25;;;;;;;1999.90;999.90;;;14.90;99.90;;;;;;5010587;28;20033;-84
2022/11/04 11:38:56;;;;;;;1999.90;999.90;;;15.00;99.90;;;;;;4985855;28;20044;-82
2022/11/04 11:41:30;;;;;;;1999.90;999.90;;;15.10;99.90;;;;;;5011455;28;20109;-84
2022/11/04 11:44:01;;;;;;;1999.90;999.90;;;15.10;99.90;;;;;;5015245;28;20034;-84
2022/11/04 11:46:31;;;;;;;1999.90;999.90;;;15.10;99.90;;;;;;5013122;28;20049;-82
2022/11/04 11:49:02;;;;;;;1999.90;999.90;;;15.10;99.90;;;;;;5011614;28;20100;-85
2022/11/04 11:51:36;;;;;;;1999.90;999.90;;;15.20;99.90;;;;;;5012764;28;20037;-83
2022/11/04 11:54:14;;;;;;;1999.90;999.90;;;15.30;99.90;;;;;;4993558;28;20477;-84
2022/11/04 11:56:43;;;;;;;1999.90;999.90;;;15.40;99.90;;;;;;4975950;28;20066;-80
2022/11/04 11:59:26;;;;;;;1999.90;999.90;;;15.40;99.90;;;;;;4970698;28;20514;-83
2022/11/04 12:02:11;;;;;;;;;;;15.40;99.90;;;;;;4967830;28;20518;-84
2022/11/04 12:04:36;;;;;;;1999.90;999.90;;;15.30;99.90;;;;;;4954264;28;19917;-83
2022/11/04 12:07:08;;;;;;;1999.90;999.90;;;15.50;99.90;;;;;;4975078;28;20460;-84
2022/11/04 12:09:46;;;;;;;1999.90;999.90;;;15.60;99.90;;;;;;4974973;28;20108;-83
2022/11/04 12:12:50;;;;;;;1999.90;999.90;;;15.70;99.90;;;;;;4972590;28;20027;-83
2022/11/04 12:15:52;;;;;;;1999.90;999.90;;;16.10;99.90;;;;;;4971939;28;20030;-85
2022/11/04 12:18:39;;;;;;;1999.90;999.90;;;16.00;99.90;;;;;;4970962;28;20056;-83
2022/11/04 12:21:18;;;;;;;1999.90;999.90;;;15.80;99.90;;;;;;4976668;28;20042;-83
2022/11/04 12:24:05;;;;;;;1999.90;999.90;;;15.80;99.90;;;;;;4972138;28;20023;-84
2022/11/04 12:26:37;;;;;;;1999.90;999.90;;;15.70;99.90;;;;;;4971728;28;20042;-84
2022/11/04 12:29:08;;;;;;;1999.90;999.90;;;15.70;99.90;;;;;;4975176;28;20035;-84
2022/11/04 12:31:59;;;;;;;1999.90;999.90;;;15.80;99.90;;;;;;4969776;28;20041;-84
2022/11/04 12:34:39;;;;;;;1999.90;999.90;;;15.80;99.90;;;;;;4971701;28;20030;-82
2022/11/04 12:37:11;;;;;;;1999.90;999.90;;;16.10;99.90;;;;;;4973338;28;20034;-83
2022/11/04 12:39:55;;;;;;;1999.90;999.90;;;16.00;99.90;;;;;;4973928;28;20062;-83
2022/11/04 12:42:37;;;;;;;1999.90;999.90;;;16.00;99.90;;;;;;4978563;28;20042;-82
2022/11/04 12:45:23;;;;;;;1999.90;999.90;;;16.40;99.90;;;;;;4973429;28;20022;-82
2022/11/04 12:47:49;;;;;;;1999.90;999.90;;;16.50;99.90;;;;;;4972607;28;20770;-80
2022/11/04 12:50:35;;;;;;;1999.90;999.90;;;16.50;99.90;;;;;;4970827;28;20042;-83
2022/11/04 12:53:15;;;;;;;1999.90;999.90;;;16.50;99.90;;;;;;4975269;28;20022;-84
2022/11/04 12:55:48;;;;;;;1999.90;999.90;;;16.70;99.90;;;;;;4992158;28;20038;-85